sensor_id;sensor_type;location;lat;lon;timestamp;pressure;altitude;pressure_sealevel;temperature;humidity
39129;BME280;24864;49.940;19.770;2022-10-26T00:01:23;98383.28;;;11.64;100.00
39129;BME280;24864;49.940;19.770;2022-10-26T00:03:54;98390.91;;;11.46;100.00
39129;BME280;24864;49.940;19.770;2022-10-26T00:06:24;98387.41;;;11.46;100.00
39129;BME280;24864;49.940;19.770;2022-10-26T00:08:54;98392.72;;;11.54;100.00
39129;BME280;24864;49.940;19.770;2022-10-26T00:11:22;98388.66;;;11.36;100.00
39129;BME280;24864;49.940;19.770;2022-10-26T00:13:50;98395.38;;;11.38;100.00
39129;BME280;24864;49.940;19.770;2022-10-26T00:16:21;98388.69;;;11.23;100.00
39129;BME280;24864;49.940;19.770;2022-10-26T00:18:49;98387.63;;;11.28;100.00
39129;BME280;24864;49.940;19.770;2022-10-26T00:21:18;98396.53;;;11.25;100.00
39129;BME280;24864;49.940;19.770;2022-10-26T00:23:47;98395.94;;;11.19;100.00
39129;BME280;24864;49.940;19.770;2022-10-26T00:26:15;98391.97;;;11.17;100.00
39129;BME280;24864;49.940;19.770;2022-10-26T00:28:43;98402.78;;;11.13;100.00
39129;BME280;24864;49.940;19.770;2022-10-26T00:31:13;98405.72;;;11.08;100.00
39129;BME280;24864;49.940;19.770;2022-10-26T00:33:41;98385.03;;;10.95;100.00
39129;BME280;24864;49.940;19.770;2022-10-26T00:36:10;98403.66;;;10.92;100.00
39129;BME280;24864;49.940;19.770;2022-10-26T00:38:39;98404.91;;;10.83;100.00
39129;BME280;24864;49.940;19.770;2022-10-26T00:41:15;98412.88;;;10.63;100.00
39129;BME280;24864;49.940;19.770;2022-10-26T00:43:43;98409.41;;;10.54;100.00
39129;BME280;24864;49.940;19.770;2022-10-26T00:46:14;98411.78;;;10.43;100.00
39129;BME280;24864;49.940;19.770;2022-10-26T00:48:45;98414.97;;;10.45;100.00
39129;BME280;24864;49.940;19.770;2022-10-26T00:51:21;98414.84;;;10.41;100.00
39129;BME280;24864;49.940;19.770;2022-10-26T00:53:51;98418.75;;;10.32;100.00
39129;BME280;24864;49.940;19.770;2022-10-26T00:56:21;98420.75;;;10.22;100.00
39129;BME280;24864;49.940;19.770;2022-10-26T00:58:50;98419.41;;;10.28;100.00
39129;BME280;24864;49.940;19.770;2022-10-26T01:01:18;98417.16;;;10.31;100.00
39129;BME280;24864;49.940;19.770;2022-10-26T01:03:47;98417.38;;;10.25;100.00
39129;BME280;24864;49.940;19.770;2022-10-26T01:06:16;98412.41;;;10.27;100.00
39129;BME280;24864;49.940;19.770;2022-10-26T01:08:44;98413.06;;;10.24;100.00
39129;BME280;24864;49.940;19.770;2022-10-26T01:11:12;98408.38;;;10.25;100.00
39129;BME280;24864;49.940;19.770;2022-10-26T01:13:42;98419.19;;;10.21;100.00
39129;BME280;24864;49.940;19.770;2022-10-26T01:16:24;98412.78;;;10.17;100.00
39129;BME280;24864;49.940;19.770;2022-10-26T01:19:03;98406.44;;;10.13;100.00
39129;BME280;24864;49.940;19.770;2022-10-26T01:21:40;98416.84;;;10.11;100.00
39129;BME280;24864;49.940;19.770;2022-10-26T01:24:22;98408.97;;;9.97;100.00
39129;BME280;24864;49.940;19.770;2022-10-26T01:27:05;98410.16;;;9.87;100.00
39129;BME280;24864;49.940;19.770;2022-10-26T01:29:58;98407.53;;;9.78;100.00
39129;BME280;24864;49.940;19.770;2022-10-26T01:32:32;98407.38;;;9.75;100.00
39129;BME280;24864;49.940;19.770;2022-10-26T01:35:07;98404.66;;;9.75;100.00
39129;BME280;24864;49.940;19.770;2022-10-26T01:37:38;98404.66;;;9.75;100.00
39129;BME280;24864;49.940;19.770;2022-10-26T01:40:15;98407.13;;;9.68;100.00
39129;BME280;24864;49.940;19.770;2022-10-26T01:42:48;98400.53;;;9.69;100.00
39129;BME280;24864;49.940;19.770;2022-10-26T01:45:18;98400.19;;;9.70;100.00
39129;BME280;24864;49.940;19.770;2022-10-26T01:47:48;98400.72;;;9.63;100.00
39129;BME280;24864;49.940;19.770;2022-10-26T01:50:17;98395.69;;;9.53;100.00
39129;BME280;24864;49.940;19.770;2022-10-26T01:52:48;98402.25;;;9.52;100.00
39129;BME280;24864;49.940;19.770;2022-10-26T01:55:39;98410.41;;;9.52;100.00
39129;BME280;24864;49.940;19.770;2022-10-26T01:58:23;98404.69;;;9.45;100.00
39129;BME280;24864;49.940;19.770;2022-10-26T02:01:02;98400.56;;;9.39;100.00
39129;BME280;24864;49.940;19.770;2022-10-26T02:03:43;98402.16;;;9.40;100.00
39129;BME280;24864;49.940;19.770;2022-10-26T02:06:18;98398.78;;;9.43;100.00
39129;BME280;24864;49.940;19.770;2022-10-26T02:08:57;98395.19;;;9.51;100.00
39129;BME280;24864;49.940;19.770;2022-10-26T02:11:37;98395.94;;;9.60;100.00
39129;BME280;24864;49.940;19.770;2022-10-26T02:14:15;98396.34;;;9.71;100.00
39129;BME280;24864;49.940;19.770;2022-10-26T02:16:52;98398.31;;;9.83;100.00
39129;BME280;24864;49.940;19.770;2022-10-26T02:19:30;98406.06;;;9.81;100.00
39129;BME280;24864;49.940;19.770;2022-10-26T02:22:04;98399.28;;;9.87;100.00
39129;BME280;24864;49.940;19.770;2022-10-26T02:24:33;98400.94;;;9.79;100.00
39129;BME280;24864;49.940;19.770;2022-10-26T02:27:05;98401.88;;;9.62;100.00
39129;BME280;24864;49.940;19.770;2022-10-26T02:29:34;98397.00;;;9.68;100.00
39129;BME280;24864;49.940;19.770;2022-10-26T02:32:04;98390.78;;;9.68;100.00
39129;BME280;24864;49.940;19.770;2022-10-26T02:34:37;98390.38;;;9.78;100.00
39129;BME280;24864;49.940;19.770;2022-10-26T02:37:07;98389.44;;;9.74;100.00
39129;BME280;24864;49.940;19.770;2022-10-26T02:39:37;98387.97;;;9.76;100.00
39129;BME280;24864;49.940;19.770;2022-10-26T02:42:07;98390.09;;;9.71;100.00
39129;BME280;24864;49.940;19.770;2022-10-26T02:44:41;98391.69;;;9.72;100.00
39129;BME280;24864;49.940;19.770;2022-10-26T02:47:11;98394.91;;;9.74;100.00
39129;BME280;24864;49.940;19.770;2022-10-26T02:49:41;98386.19;;;9.80;100.00
39129;BME280;24864;49.940;19.770;2022-10-26T02:52:14;98385.19;;;9.85;100.00
39129;BME280;24864;49.940;19.770;2022-10-26T02:54:50;98400.13;;;9.79;100.00
39129;BME280;24864;49.940;19.770;2022-10-26T02:57:22;98399.94;;;9.84;100.00
39129;BME280;24864;49.940;19.770;2022-10-26T02:59:52;98401.66;;;9.89;100.00
39129;BME280;24864;49.940;19.770;2022-10-26T03:02:21;98405.66;;;9.91;100.00
39129;BME280;24864;49.940;19.770;2022-10-26T03:04:51;98400.19;;;9.91;100.00
39129;BME280;24864;49.940;19.770;2022-10-26T03:07:21;98413.59;;;9.96;100.00
39129;BME280;24864;49.940;19.770;2022-10-26T03:09:50;98402.41;;;9.98;100.00
39129;BME280;24864;49.940;19.770;2022-10-26T03:12:18;98410.84;;;10.05;100.00
39129;BME280;24864;49.940;19.770;2022-10-26T03:14:46;98409.09;;;10.01;100.00
39129;BME280;24864;49.940;19.770;2022-10-26T03:17:14;98418.41;;;10.00;100.00
39129;BME280;24864;49.940;19.770;2022-10-26T03:19:42;98422.66;;;9.88;100.00
39129;BME280;24864;49.940;19.770;2022-10-26T03:22:11;98418.06;;;9.80;100.00
39129;BME280;24864;49.940;19.770;2022-10-26T03:24:39;98421.06;;;9.66;100.00
39129;BME280;24864;49.940;19.770;2022-10-26T03:27:07;98414.72;;;9.53;100.00
39129;BME280;24864;49.940;19.770;2022-10-26T03:29:35;98413.34;;;9.47;100.00
39129;BME280;24864;49.940;19.770;2022-10-26T03:32:03;98414.00;;;9.44;100.00
39129;BME280;24864;49.940;19.770;2022-10-26T03:34:32;98419.22;;;9.28;100.00
39129;BME280;24864;49.940;19.770;2022-10-26T03:37:00;98418.28;;;9.24;100.00
39129;BME280;24864;49.940;19.770;2022-10-26T03:39:29;98416.81;;;9.26;100.00
39129;BME280;24864;49.940;19.770;2022-10-26T03:41:57;98418.31;;;9.15;100.00
39129;BME280;24864;49.940;19.770;2022-10-26T03:44:26;98415.31;;;9.08;100.00
39129;BME280;24864;49.940;19.770;2022-10-26T03:46:53;98416.44;;;9.07;100.00
39129;BME280;24864;49.940;19.770;2022-10-26T03:49:21;98422.53;;;9.04;100.00
39129;BME280;24864;49.940;19.770;2022-10-26T03:51:49;98420.00;;;8.98;100.00
39129;BME280;24864;49.940;19.770;2022-10-26T03:54:17;98421.00;;;8.85;100.00
39129;BME280;24864;49.940;19.770;2022-10-26T03:56:46;98424.19;;;8.87;100.00
39129;BME280;24864;49.940;19.770;2022-10-26T03:59:20;98422.47;;;8.82;100.00
39129;BME280;24864;49.940;19.770;2022-10-26T04:01:48;98426.78;;;8.75;100.00
39129;BME280;24864;49.940;19.770;2022-10-26T04:04:22;98417.50;;;8.76;100.00
39129;BME280;24864;49.940;19.770;2022-10-26T04:06:51;98424.06;;;8.75;100.00
39129;BME280;24864;49.940;19.770;2022-10-26T04:09:19;98429.06;;;8.73;100.00
39129;BME280;24864;49.940;19.770;2022-10-26T04:11:48;98420.09;;;8.72;100.00
39129;BME280;24864;49.940;19.770;2022-10-26T04:14:16;98418.34;;;8.67;100.00
39129;BME280;24864;49.940;19.770;2022-10-26T04:16:44;98420.13;;;8.63;100.00
39129;BME280;24864;49.940;19.770;2022-10-26T04:19:12;98423.50;;;8.60;100.00
39129;BME280;24864;49.940;19.770;2022-10-26T04:21:40;98425.75;;;8.49;100.00
39129;BME280;24864;49.940;19.770;2022-10-26T04:24:08;98424.31;;;8.34;100.00
39129;BME280;24864;49.940;19.770;2022-10-26T04:26:36;98422.41;;;8.26;100.00
39129;BME280;24864;49.940;19.770;2022-10-26T04:29:06;98425.28;;;8.21;100.00
39129;BME280;24864;49.940;19.770;2022-10-26T04:31:34;98421.94;;;8.15;100.00
39129;BME280;24864;49.940;19.770;2022-10-26T04:34:03;98426.88;;;8.13;100.00
39129;BME280;24864;49.940;19.770;2022-10-26T04:36:30;98431.03;;;8.11;100.00
39129;BME280;24864;49.940;19.770;2022-10-26T04:38:58;98428.31;;;8.11;100.00
39129;BME280;24864;49.940;19.770;2022-10-26T04:41:26;98420.19;;;8.11;100.00
39129;BME280;24864;49.940;19.770;2022-10-26T04:43:55;98421.78;;;8.12;100.00
39129;BME280;24864;49.940;19.770;2022-10-26T04:46:24;98422.13;;;8.01;100.00
39129;BME280;24864;49.940;19.770;2022-10-26T04:48:52;98417.00;;;7.91;100.00
39129;BME280;24864;49.940;19.770;2022-10-26T04:51:20;98418.44;;;7.88;100.00
39129;BME280;24864;49.940;19.770;2022-10-26T04:53:48;98426.13;;;7.95;100.00
39129;BME280;24864;49.940;19.770;2022-10-26T04:56:16;98429.13;;;8.02;100.00
39129;BME280;24864;49.940;19.770;2022-10-26T04:58:43;98423.41;;;7.95;100.00
39129;BME280;24864;49.940;19.770;2022-10-26T05:01:11;98430.91;;;7.90;100.00
39129;BME280;24864;49.940;19.770;2022-10-26T05:03:41;98432.97;;;7.84;100.00
39129;BME280;24864;49.940;19.770;2022-10-26T05:06:09;98432.00;;;7.80;100.00
39129;BME280;24864;49.940;19.770;2022-10-26T05:08:37;98427.53;;;7.84;100.00
39129;BME280;24864;49.940;19.770;2022-10-26T05:11:04;98435.84;;;7.96;100.00
39129;BME280;24864;49.940;19.770;2022-10-26T05:13:32;98429.78;;;7.99;100.00
39129;BME280;24864;49.940;19.770;2022-10-26T05:16:00;98427.84;;;7.91;100.00
39129;BME280;24864;49.940;19.770;2022-10-26T05:18:28;98433.59;;;7.98;100.00
39129;BME280;24864;49.940;19.770;2022-10-26T05:20:58;98433.94;;;8.06;100.00
39129;BME280;24864;49.940;19.770;2022-10-26T05:23:26;98437.13;;;7.99;100.00
39129;BME280;24864;49.940;19.770;2022-10-26T05:25:54;98442.25;;;7.92;100.00
39129;BME280;24864;49.940;19.770;2022-10-26T05:28:22;98438.72;;;7.91;100.00
39129;BME280;24864;49.940;19.770;2022-10-26T05:30:50;98442.72;;;7.94;100.00
39129;BME280;24864;49.940;19.770;2022-10-26T05:33:18;98449.91;;;7.98;100.00
39129;BME280;24864;49.940;19.770;2022-10-26T05:35:46;98444.78;;;7.97;100.00
39129;BME280;24864;49.940;19.770;2022-10-26T05:38:16;98442.88;;;7.80;100.00
39129;BME280;24864;49.940;19.770;2022-10-26T05:40:47;98443.19;;;7.69;100.00
39129;BME280;24864;49.940;19.770;2022-10-26T05:43:16;98447.63;;;7.65;100.00
39129;BME280;24864;49.940;19.770;2022-10-26T05:45:44;98445.91;;;7.69;100.00
39129;BME280;24864;49.940;19.770;2022-10-26T05:48:12;98454.84;;;7.70;100.00
39129;BME280;24864;49.940;19.770;2022-10-26T05:50:40;98460.09;;;7.75;100.00
39129;BME280;24864;49.940;19.770;2022-10-26T05:53:08;98451.50;;;7.82;100.00
39129;BME280;24864;49.940;19.770;2022-10-26T05:55:38;98457.72;;;7.91;100.00
39129;BME280;24864;49.940;19.770;2022-10-26T05:58:09;98454.84;;;7.96;100.00
39129;BME280;24864;49.940;19.770;2022-10-26T06:00:45;98463.97;;;8.00;100.00
39129;BME280;24864;49.940;19.770;2022-10-26T06:03:25;98461.41;;;8.13;100.00
39129;BME280;24864;49.940;19.770;2022-10-26T06:06:02;98467.50;;;8.27;100.00
39129;BME280;24864;49.940;19.770;2022-10-26T06:08:33;98462.66;;;8.33;100.00
39129;BME280;24864;49.940;19.770;2022-10-26T06:11:03;98467.16;;;8.38;100.00
39129;BME280;24864;49.940;19.770;2022-10-26T06:13:33;98468.56;;;8.44;100.00
39129;BME280;24864;49.940;19.770;2022-10-26T06:16:25;98468.44;;;8.49;100.00
39129;BME280;24864;49.940;19.770;2022-10-26T06:19:06;98477.06;;;8.51;100.00
39129;BME280;24864;49.940;19.770;2022-10-26T06:21:47;98477.06;;;8.51;100.00
39129;BME280;24864;49.940;19.770;2022-10-26T06:24:26;98476.41;;;8.54;100.00
39129;BME280;24864;49.940;19.770;2022-10-26T06:27:06;98486.47;;;8.62;100.00
39129;BME280;24864;49.940;19.770;2022-10-26T06:29:49;98478.00;;;8.73;100.00
39129;BME280;24864;49.940;19.770;2022-10-26T06:32:22;98485.31;;;8.81;100.00
39129;BME280;24864;49.940;19.770;2022-10-26T06:34:54;98483.22;;;8.95;100.00
39129;BME280;24864;49.940;19.770;2022-10-26T06:37:32;98488.72;;;9.16;100.00
39129;BME280;24864;49.940;19.770;2022-10-26T06:40:04;98497.44;;;9.40;100.00
39129;BME280;24864;49.940;19.770;2022-10-26T06:42:34;98497.72;;;9.47;100.00
39129;BME280;24864;49.940;19.770;2022-10-26T06:45:03;98505.25;;;9.50;100.00
39129;BME280;24864;49.940;19.770;2022-10-26T06:47:36;98502.97;;;9.52;100.00
39129;BME280;24864;49.940;19.770;2022-10-26T06:50:15;98505.34;;;9.62;100.00
39129;BME280;24864;49.940;19.770;2022-10-26T06:52:52;98508.88;;;9.84;100.00
39129;BME280;24864;49.940;19.770;2022-10-26T06:55:24;98514.34;;;9.84;100.00
39129;BME280;24864;49.940;19.770;2022-10-26T06:57:54;98508.66;;;9.98;100.00
39129;BME280;24864;49.940;19.770;2022-10-26T07:00:23;98513.84;;;10.12;100.00
39129;BME280;24864;49.940;19.770;2022-10-26T07:02:52;98517.53;;;10.28;100.00
39129;BME280;24864;49.940;19.770;2022-10-26T07:05:20;98515.16;;;10.48;100.00
39129;BME280;24864;49.940;19.770;2022-10-26T07:07:48;98520.03;;;10.64;100.00
39129;BME280;24864;49.940;19.770;2022-10-26T07:10:17;98528.38;;;10.80;100.00
39129;BME280;24864;49.940;19.770;2022-10-26T07:12:45;98522.44;;;10.77;100.00
39129;BME280;24864;49.940;19.770;2022-10-26T07:15:14;98516.31;;;10.81;100.00
39129;BME280;24864;49.940;19.770;2022-10-26T07:17:42;98529.19;;;10.92;100.00
39129;BME280;24864;49.940;19.770;2022-10-26T07:20:12;98526.94;;;10.95;100.00
39129;BME280;24864;49.940;19.770;2022-10-26T07:22:39;98533.31;;;10.99;100.00
39129;BME280;24864;49.940;19.770;2022-10-26T07:25:09;98537.00;;;11.15;100.00
39129;BME280;24864;49.940;19.770;2022-10-26T07:27:38;98536.34;;;11.31;100.00
39129;BME280;24864;49.940;19.770;2022-10-26T07:30:07;98535.19;;;11.32;100.00
39129;BME280;24864;49.940;19.770;2022-10-26T07:32:36;98538.84;;;11.48;100.00
39129;BME280;24864;49.940;19.770;2022-10-26T07:35:05;98537.72;;;11.62;100.00
39129;BME280;24864;49.940;19.770;2022-10-26T07:37:33;98540.34;;;11.70;100.00
39129;BME280;24864;49.940;19.770;2022-10-26T07:40:00;98537.72;;;11.86;100.00
39129;BME280;24864;49.940;19.770;2022-10-26T07:42:32;98548.88;;;11.94;100.00
39129;BME280;24864;49.940;19.770;2022-10-26T07:45:03;98536.81;;;11.82;100.00
39129;BME280;24864;49.940;19.770;2022-10-26T07:47:31;98550.03;;;12.05;100.00
39129;BME280;24864;49.940;19.770;2022-10-26T07:50:00;98543.38;;;12.18;100.00
39129;BME280;24864;49.940;19.770;2022-10-26T07:52:29;98545.88;;;12.24;100.00
39129;BME280;24864;49.940;19.770;2022-10-26T07:54:57;98542.88;;;12.41;100.00
39129;BME280;24864;49.940;19.770;2022-10-26T07:57:24;98537.50;;;12.45;100.00
39129;BME280;24864;49.940;19.770;2022-10-26T07:59:52;98542.81;;;12.53;100.00
39129;BME280;24864;49.940;19.770;2022-10-26T08:02:20;98546.22;;;12.63;100.00
39129;BME280;24864;49.940;19.770;2022-10-26T08:04:48;98541.63;;;12.67;100.00
39129;BME280;24864;49.940;19.770;2022-10-26T08:07:17;98546.38;;;12.82;100.00
39129;BME280;24864;49.940;19.770;2022-10-26T08:09:45;98539.44;;;13.01;100.00
39129;BME280;24864;49.940;19.770;2022-10-26T08:12:13;98532.75;;;13.14;100.00
39129;BME280;24864;49.940;19.770;2022-10-26T08:14:42;98540.38;;;13.37;100.00
39129;BME280;24864;49.940;19.770;2022-10-26T08:17:10;98544.47;;;13.43;100.00
39129;BME280;24864;49.940;19.770;2022-10-26T08:19:38;98546.75;;;13.73;100.00
39129;BME280;24864;49.940;19.770;2022-10-26T08:22:06;98544.59;;;13.82;100.00
39129;BME280;24864;49.940;19.770;2022-10-26T08:24:37;98536.81;;;13.85;100.00
39129;BME280;24864;49.940;19.770;2022-10-26T08:27:05;98541.47;;;14.00;100.00
39129;BME280;24864;49.940;19.770;2022-10-26T08:29:33;98518.47;;;14.05;100.00
39129;BME280;24864;49.940;19.770;2022-10-26T08:32:01;98536.91;;;14.24;100.00
39129;BME280;24864;49.940;19.770;2022-10-26T08:34:29;98545.88;;;14.40;100.00
39129;BME280;24864;49.940;19.770;2022-10-26T08:36:57;98540.66;;;14.55;100.00
39129;BME280;24864;49.940;19.770;2022-10-26T08:39:25;98543.13;;;14.60;100.00
39129;BME280;24864;49.940;19.770;2022-10-26T08:42:00;98533.91;;;14.68;100.00
39129;BME280;24864;49.940;19.770;2022-10-26T08:44:34;98535.47;;;14.89;100.00
39129;BME280;24864;49.940;19.770;2022-10-26T08:47:06;98537.75;;;15.06;100.00
39129;BME280;24864;49.940;19.770;2022-10-26T08:49:40;98536.09;;;15.02;100.00
39129;BME280;24864;49.940;19.770;2022-10-26T08:52:13;98540.59;;;14.90;100.00
39129;BME280;24864;49.940;19.770;2022-10-26T08:54:45;98537.16;;;14.74;100.00
39129;BME280;24864;49.940;19.770;2022-10-26T08:57:20;98535.06;;;14.67;100.00
39129;BME280;24864;49.940;19.770;2022-10-26T08:59:54;98538.47;;;14.80;100.00
39129;BME280;24864;49.940;19.770;2022-10-26T09:02:23;98533.72;;;15.00;100.00
39129;BME280;24864;49.940;19.770;2022-10-26T09:04:52;98538.81;;;14.98;100.00
39129;BME280;24864;49.940;19.770;2022-10-26T09:07:38;98536.16;;;14.82;100.00
39129;BME280;24864;49.940;19.770;2022-10-26T09:10:34;98512.34;;;14.90;100.00
39129;BME280;24864;49.940;19.770;2022-10-26T09:13:16;98538.53;;;14.84;100.00
39129;BME280;24864;49.940;19.770;2022-10-26T09:15:57;98537.56;;;14.96;100.00
39129;BME280;24864;49.940;19.770;2022-10-26T09:18:37;98538.50;;;15.03;100.00
39129;BME280;24864;49.940;19.770;2022-10-26T09:21:15;98537.03;;;15.09;100.00
39129;BME280;24864;49.940;19.770;2022-10-26T09:23:54;98538.81;;;15.45;100.00
39129;BME280;24864;49.940;19.770;2022-10-26T09:26:30;98540.44;;;15.72;100.00
39129;BME280;24864;49.940;19.770;2022-10-26T09:29:03;98546.25;;;15.90;100.00
39129;BME280;24864;49.940;19.770;2022-10-26T09:31:38;98549.88;;;15.98;100.00
39129;BME280;24864;49.940;19.770;2022-10-26T09:34:17;98552.63;;;15.98;100.00
39129;BME280;24864;49.940;19.770;2022-10-26T09:36:46;98553.03;;;15.73;100.00
39129;BME280;24864;49.940;19.770;2022-10-26T09:39:21;98553.78;;;16.24;100.00
39129;BME280;24864;49.940;19.770;2022-10-26T09:41:55;98555.00;;;16.57;100.00
39129;BME280;24864;49.940;19.770;2022-10-26T09:44:29;98561.09;;;15.86;100.00
39129;BME280;24864;49.940;19.770;2022-10-26T09:47:03;98562.66;;;16.41;100.00
39129;BME280;24864;49.940;19.770;2022-10-26T09:49:38;98556.50;;;16.51;100.00
39129;BME280;24864;49.940;19.770;2022-10-26T09:52:08;98552.34;;;16.98;100.00
39129;BME280;24864;49.940;19.770;2022-10-26T09:54:41;98559.94;;;17.50;100.00
39129;BME280;24864;49.940;19.770;2022-10-26T09:57:14;98560.53;;;17.74;100.00
39129;BME280;24864;49.940;19.770;2022-10-26T09:59:44;98545.75;;;17.96;100.00
39129;BME280;24864;49.940;19.770;2022-10-26T10:02:34;98559.69;;;18.18;100.00
39129;BME280;24864;49.940;19.770;2022-10-26T10:05:20;98558.00;;;17.13;100.00
39129;BME280;24864;49.940;19.770;2022-10-26T10:08:13;98565.88;;;17.14;100.00
39129;BME280;24864;49.940;19.770;2022-10-26T10:10:57;98555.81;;;17.29;100.00
39129;BME280;24864;49.940;19.770;2022-10-26T10:13:27;98564.03;;;17.71;100.00
39129;BME280;24864;49.940;19.770;2022-10-26T10:16:05;98554.78;;;17.93;100.00
39129;BME280;24864;49.940;19.770;2022-10-26T10:18:35;98556.97;;;18.25;100.00
39129;BME280;24864;49.940;19.770;2022-10-26T10:21:05;98561.06;;;18.60;100.00
39129;BME280;24864;49.940;19.770;2022-10-26T10:23:35;98552.09;;;18.89;100.00
39129;BME280;24864;49.940;19.770;2022-10-26T10:26:06;98546.50;;;18.63;100.00
39129;BME280;24864;49.940;19.770;2022-10-26T10:28:37;98552.06;;;18.78;100.00
39129;BME280;24864;49.940;19.770;2022-10-26T10:31:18;98549.03;;;19.12;100.00
39129;BME280;24864;49.940;19.770;2022-10-26T10:33:47;98545.13;;;19.64;100.00
39129;BME280;24864;49.940;19.770;2022-10-26T10:36:18;98549.81;;;20.25;97.69
39129;BME280;24864;49.940;19.770;2022-10-26T10:38:48;98550.44;;;20.72;94.07
39129;BME280;24864;49.940;19.770;2022-10-26T10:41:24;98555.00;;;21.11;89.76
39129;BME280;24864;49.940;19.770;2022-10-26T10:43:56;98553.28;;;20.58;88.78
39129;BME280;24864;49.940;19.770;2022-10-26T10:46:28;98550.28;;;19.69;92.16
39129;BME280;24864;49.940;19.770;2022-10-26T10:49:03;98547.44;;;19.11;94.12
39129;BME280;24864;49.940;19.770;2022-10-26T10:51:37;98540.38;;;19.93;92.18
39129;BME280;24864;49.940;19.770;2022-10-26T10:54:17;98541.06;;;20.44;92.22
39129;BME280;24864;49.940;19.770;2022-10-26T10:56:48;98548.28;;;19.95;90.69
39129;BME280;24864;49.940;19.770;2022-10-26T10:59:37;98545.88;;;20.11;90.50
39129;BME280;24864;49.940;19.770;2022-10-26T11:02:24;98549.94;;;20.99;88.43
39129;BME280;24864;49.940;19.770;2022-10-26T11:05:20;98545.63;;;20.91;87.21
39129;BME280;24864;49.940;19.770;2022-10-26T11:07:56;98546.91;;;20.61;89.89
39129;BME280;24864;49.940;19.770;2022-10-26T11:10:32;98550.34;;;20.94;84.06
39129;BME280;24864;49.940;19.770;2022-10-26T11:13:09;98540.78;;;19.92;88.57
39129;BME280;24864;49.940;19.770;2022-10-26T11:15:41;98544.13;;;20.68;86.78
39129;BME280;24864;49.940;19.770;2022-10-26T11:18:15;98546.88;;;20.68;85.99
39129;BME280;24864;49.940;19.770;2022-10-26T11:20:47;98547.47;;;20.19;86.16
39129;BME280;24864;49.940;19.770;2022-10-26T11:23:20;98551.06;;;21.05;86.22
39129;BME280;24864;49.940;19.770;2022-10-26T11:25:52;98537.69;;;21.53;81.48
39129;BME280;24864;49.940;19.770;2022-10-26T11:28:40;98548.97;;;20.38;82.38
39129;BME280;24864;49.940;19.770;2022-10-26T11:31:16;98541.78;;;20.59;82.92
39129;BME280;24864;49.940;19.770;2022-10-26T11:33:56;98540.78;;;21.06;82.96
39129;BME280;24864;49.940;19.770;2022-10-26T11:36:27;98539.47;;;20.43;87.08
39129;BME280;24864;49.940;19.770;2022-10-26T11:39:03;98543.41;;;20.49;84.68
39129;BME280;24864;49.940;19.770;2022-10-26T11:41:37;98542.28;;;20.21;83.87
39129;BME280;24864;49.940;19.770;2022-10-26T11:44:10;98533.25;;;19.96;85.23
39129;BME280;24864;49.940;19.770;2022-10-26T11:46:46;98528.53;;;19.42;92.47
39129;BME280;24864;49.940;19.770;2022-10-26T11:49:22;98534.06;;;19.35;90.98
39129;BME280;24864;49.940;19.770;2022-10-26T11:51:57;98534.84;;;19.46;89.72
39129;BME280;24864;49.940;19.770;2022-10-26T11:54:32;98541.41;;;18.80;92.84
39129;BME280;24864;49.940;19.770;2022-10-26T11:57:02;98533.41;;;18.46;95.00
39129;BME280;24864;49.940;19.770;2022-10-26T11:59:36;98529.28;;;18.14;94.32
39129;BME280;24864;49.940;19.770;2022-10-26T12:02:13;98528.72;;;17.87;97.92
39129;BME280;24864;49.940;19.770;2022-10-26T12:04:44;98533.97;;;17.55;100.00
39129;BME280;24864;49.940;19.770;2022-10-26T12:07:20;98535.13;;;17.50;99.43
39129;BME280;24864;49.940;19.770;2022-10-26T12:09:49;98531.66;;;17.60;98.63
39129;BME280;24864;49.940;19.770;2022-10-26T12:12:23;98529.34;;;17.70;100.00
39129;BME280;24864;49.940;19.770;2022-10-26T12:14:58;98528.19;;;17.71;98.74
39129;BME280;24864;49.940;19.770;2022-10-26T12:17:34;98530.50;;;17.61;99.37
39129;BME280;24864;49.940;19.770;2022-10-26T12:20:12;98530.78;;;17.49;100.00
39129;BME280;24864;49.940;19.770;2022-10-26T12:22:50;98530.72;;;17.42;100.00
39129;BME280;24864;49.940;19.770;2022-10-26T12:25:20;98536.16;;;16.93;100.00
39129;BME280;24864;49.940;19.770;2022-10-26T12:27:50;98544.72;;;16.54;100.00
39129;BME280;24864;49.940;19.770;2022-10-26T12:30:30;98543.06;;;16.46;100.00
39129;BME280;24864;49.940;19.770;2022-10-26T12:32:59;98535.97;;;16.45;100.00
39129;BME280;24864;49.940;19.770;2022-10-26T12:35:34;98531.41;;;16.56;100.00
39129;BME280;24864;49.940;19.770;2022-10-26T12:41:21;98537.06;;;16.70;100.00
39129;BME280;24864;49.940;19.770;2022-10-26T12:43:50;98531.53;;;16.67;100.00
39129;BME280;24864;49.940;19.770;2022-10-26T12:52:32;98535.22;;;16.48;100.00
39129;BME280;24864;49.940;19.770;2022-10-26T12:55:17;98531.97;;;16.38;100.00
39129;BME280;24864;49.940;19.770;2022-10-26T12:57:58;98528.59;;;16.22;100.00
39129;BME280;24864;49.940;19.770;2022-10-26T13:00:30;98534.63;;;16.31;100.00
39129;BME280;24864;49.940;19.770;2022-10-26T13:03:11;98529.13;;;16.31;100.00
39129;BME280;24864;49.940;19.770;2022-10-26T13:06:03;98530.22;;;16.27;100.00
39129;BME280;24864;49.940;19.770;2022-10-26T13:08:41;98525.44;;;16.20;100.00
39129;BME280;24864;49.940;19.770;2022-10-26T13:11:15;98523.84;;;16.19;100.00
39129;BME280;24864;49.940;19.770;2022-10-26T13:13:51;98523.94;;;16.26;100.00
39129;BME280;24864;49.940;19.770;2022-10-26T13:16:23;98518.34;;;16.19;100.00
39129;BME280;24864;49.940;19.770;2022-10-26T13:18:53;98527.81;;;16.21;100.00
39129;BME280;24864;49.940;19.770;2022-10-26T13:21:22;98530.78;;;16.09;100.00